Date,TemperatureHighF,TemperatureAvgF,TemperatureLowF,DewpointHighF,DewpointAvgF,DewpointLowF,HumidityHigh,HumidityAvg,HumidityLow,PressureMaxIn,PressureMinIn,WindSpeedMaxMPH,WindSpeedAvgMPH,GustSpeedMaxMPH,PrecipitationSumIn
2013-1-1,20.1,15.4,8.5,16.6,10.0,5.1,87,79,63,30.31,30.15,13,4,19,0.00
2013-1-2,30.4,18.5,6.3,21.7,13.1,3.8,90,80,65,30.26,30.13,10,5,19,0.00
2013-1-3,30.8,24.5,11.8,26.8,20.4,8.7,92,85,70,30.35,30.15,21,9,29,0.00
2013-1-4,33.0,21.8,9.4,25.7,17.6,6.7,89,84,73,30.35,30.26,16,8,26,0.00
2013-1-5,37.3,30.1,20.0,35.2,27.6,18.0,96,90,79,30.26,29.99,14,6,23,0.01
2013-1-6,35.6,24.8,18.5,33.4,21.2,15.3,95,86,75,30.35,29.98,22,11,31,0.00
2013-1-7,40.5,29.4,17.8,30.7,24.4,15.4,92,82,62,30.35,30.11,11,8,22,0.00
2013-1-8,45.7,36.0,27.7,34.6,30.0,24.9,90,79,62,30.15,30.03,18,8,26,0.00
2013-1-9,48.0,38.2,30.0,37.4,31.6,27.9,96,78,54,30.50,30.05,20,7,29,0.00
2013-1-10,47.6,36.8,30.1,47.2,32.3,24.4,99,84,60,30.48,29.79,9,4,21,0.79
2013-1-11,54.8,50.5,44.5,51.9,48.7,44.1,99,94,85,29.79,29.65,16,9,27,0.30
2013-1-12,52.8,38.4,24.2,48.5,34.2,22.2,92,85,77,29.99,29.68,20,10,27,0.00
2013-1-13,24.2,18.1,11.6,21.4,14.3,8.2,92,85,78,30.31,29.92,18,12,24,0.00
2013-1-14,24.3,16.3,9.8,14.8,11.0,7.1,89,80,60,30.51,30.31,10,3,15,0.00
2013-1-15,30.2,20.7,11.7,19.0,14.4,8.4,88,77,59,30.46,30.16,5,2,11,0.00
2013-1-16,37.5,27.4,15.1,30.3,21.3,11.4,88,78,58,30.16,29.91,20,8,30,0.01
2013-1-17,33.8,28.2,21.1,30.7,22.3,16.9,93,79,57,30.44,30.09,17,8,24,0.00
2013-1-18,46.9,35.0,21.5,33.8,26.8,17.0,87,73,59,30.45,29.97,13,7,33,0.01
2013-1-19,50.8,41.9,28.0,40.8,33.6,17.2,82,72,61,30.09,29.78,31,12,45,0.01
2013-1-20,28.0,17.6,13.6,17.9,10.4,6.7,85,73,57,30.34,30.09,33,14,43,0.00
2013-1-21,14.2,8.4,4.0,11.4,1.0,-3.6,89,72,52,30.39,30.25,25,17,36,0.00
2013-1-22,14.5,8.5,0.6,4.5,-0.4,-5.5,80,67,50,30.49,30.37,14,9,22,0.00
2013-1-23,33.2,20.2,12.9,19.1,10.1,3.5,79,65,51,30.40,30.14,22,9,33,0.00
2013-1-24,22.2,15.6,6.5,11.0,5.0,-1.2,80,63,46,30.66,30.31,15,4,23,0.00
2013-1-25,37.3,26.5,18.3,22.0,16.0,9.5,80,65,49,30.31,30.02,18,10,29,0.00
2013-1-26,32.0,21.4,9.0,18.3,11.7,5.3,86,67,46,30.42,30.24,13,4,18,0.00
2013-1-27,43.9,33.0,27.5,43.4,28.6,18.3,98,84,67,30.35,29.87,17,10,28,0.27
2013-1-28,55.8,48.9,43.9,55.5,48.5,43.4,99,99,98,29.93,29.72,15,6,26,0.01
2013-1-29,64.6,56.6,43.0,61.3,55.6,42.2,99,97,89,29.72,29.37,15,7,24,1.20
2013-1-30,36.0,26.0,17.3,35.5,23.5,13.3,98,90,83,29.79,29.28,30,22,43,0.17
2013-1-31,20.9,12.8,3.8,18.3,8.3,-1.1,91,82,74,30.32,29.79,25,19,37,0.00
2013-2-1,20.0,9.9,0.8,18.1,4.1,-3.9,92,77,68,30.46,30.20,22,11,31,0.00
2013-2-2,27.3,20.9,14.7,24.9,17.3,10.2,93,86,76,30.19,30.04,17,8,26,0.00
2013-2-3,27.7,22.7,17.1,21.3,18.1,14.4,95,83,68,30.13,29.99,22,9,31,0.00
2013-2-4,35.5,26.7,18.0,29.3,22.4,15.8,91,84,74,29.99,29.80,14,4,22,0.00
2013-2-5,40.2,29.2,16.9,33.9,25.7,14.7,92,87,78,30.11,29.84,19,8,28,0.00
2013-2-6,44.0,35.0,24.2,34.7,30.1,22.6,96,83,66,30.20,30.03,17,5,26,0.00
2013-2-7,37.1,35.6,33.4,36.0,34.1,31.9,98,94,84,30.06,29.85,17,8,28,0.61
2013-2-8,33.4,28.0,25.5,31.9,25.0,22.4,94,88,85,30.39,30.03,16,4,24,0.00
2013-2-9,37.2,31.3,26.6,32.1,27.7,23.6,90,86,80,30.38,30.01,16,9,29,0.00
2013-2-10,48.5,41.7,35.7,47.0,39.4,31.9,97,92,72,30.03,29.45,26,15,40,0.47
2013-2-11,39.5,33.1,29.9,33.8,26.8,24.9,83,77,72,30.10,29.58,32,22,49,0.00
2013-2-12,38.2,31.0,27.0,28.6,25.7,23.5,88,81,66,30.14,29.93,14,7,21,0.00
2013-2-13,45.1,34.7,24.5,35.5,29.8,22.8,94,83,66,29.93,29.74,14,5,21,0.00
2013-2-14,40.2,36.2,31.9,33.5,31.9,28.8,93,84,75,30.01,29.69,22,11,34,0.00
2013-2-15,33.7,26.9,19.6,31.2,18.9,15.0,93,73,49,30.24,30.01,21,13,29,0.00
2013-2-16,28.0,19.8,12.0,17.6,12.5,8.1,86,73,59,30.24,30.16,17,9,26,0.00
2013-2-17,36.6,25.2,12.3,25.1,17.0,8.7,87,72,55,30.22,29.90,18,7,29,0.00
2013-2-18,53.4,38.5,22.4,47.1,32.8,18.6,96,81,65,29.89,29.43,29,16,42,0.33
2013-2-19,22.9,17.3,11.9,19.6,12.0,7.5,88,80,70,30.29,29.76,31,24,44,0.00
2013-2-20,19.8,13.3,4.7,16.2,8.5,0.2,88,81,72,30.44,30.30,19,8,28,0.00
2013-2-21,29.2,22.4,13.5,25.0,19.2,10.9,95,87,81,30.39,29.89,15,7,32,0.00
2013-2-22,32.0,28.6,25.4,31.2,26.3,21.8,97,91,84,29.98,29.78,19,9,27,0.04
2013-2-23,29.3,24.5,20.3,23.3,19.8,17.0,87,82,76,30.01,29.96,13,7,20,0.01
2013-2-24,38.6,27.3,14.1,28.3,21.7,11.7,93,80,62,30.13,30.00,7,3,11,0.02
2013-2-25,42.2,34.0,25.3,35.3,29.5,22.8,93,84,70,30.12,29.85,13,5,24,0.00
2013-2-26,35.4,32.7,31.4,31.6,30.7,28.7,98,93,77,29.85,29.48,16,8,34,0.09
2013-2-27,32.0,30.8,29.5,31.2,30.1,28.8,98,97,96,29.79,29.58,0,0,1,0.03
2013-2-28,31.4,31.3,31.0,30.6,30.5,30.2,97,97,97,30.08,30.07,7,5,9,0.03
2013-3-1,30.0,26.8,24.2,29.1,23.8,20.5,97,88,83,30.23,30.08,9,3,17,0.04
2013-3-2,27.4,21.6,11.6,21.1,16.3,8.8,89,80,65,30.26,30.20,15,7,19,0.00
2013-3-3,30.8,20.2,8.0,18.0,12.9,5.7,93,75,56,30.21,30.09,5,2,8,0.00
2013-3-4,34.8,30.6,24.7,30.3,25.1,15.3,92,80,66,30.11,29.89,11,7,25,0.01
2013-3-5,33.5,30.7,26.6,31.0,29.0,24.8,97,93,86,30.08,29.84,25,13,34,0.09
2013-3-6,28.7,26.2,21.2,25.4,23.0,19.0,92,87,83,30.36,30.09,21,13,30,0.00
2013-3-7,36.1,28.5,24.3,28.3,24.4,22.1,91,85,71,30.43,30.34,7,2,12,0.02
2013-3-8,43.4,34.1,23.5,34.6,29.1,21.5,93,82,68,30.44,30.22,13,5,19,0.00
2013-3-9,50.3,41.3,36.0,42.5,36.9,32.1,95,85,70,30.23,29.75,17,10,28,0.36
2013-3-10,50.5,47.2,42.5,50.0,46.1,40.8,99,96,85,29.81,29.57,19,6,27,0.74
2013-3-11,44.6,35.0,29.9,44.3,33.2,26.2,99,93,86,29.89,29.61,23,16,34,0.03
2013-3-12,36.9,30.3,25.5,32.3,26.4,20.4,94,85,75,30.13,29.90,28,15,38,0.00
2013-3-13,35.1,27.7,22.2,23.6,20.9,18.3,87,76,51,30.38,30.12,21,14,30,0.00
2013-3-14,44.3,33.2,23.0,33.1,26.9,20.6,92,78,57,30.37,30.07,15,6,25,0.00
2013-3-15,51.8,40.3,30.1,41.8,35.4,28.6,95,83,62,30.06,29.67,8,4,13,0.00
2013-3-16,40.5,34.9,30.6,39.2,32.0,27.7,98,90,74,30.11,29.65,15,5,23,0.00
2013-3-17,35.5,31.7,28.1,29.1,26.5,22.9,90,81,73,30.17,29.90,10,6,24,0.00
2013-3-18,38.7,31.6,24.9,35.4,28.2,16.8,96,87,71,29.93,29.68,30,13,48,0.05
2013-3-19,38.5,27.5,18.5,21.9,16.5,11.3,78,64,42,30.17,29.91,27,17,44,0.00
2013-3-20,28.2,22.3,14.9,21.7,11.7,7.2,81,64,46,30.21,30.11,26,19,36,0.00
2013-3-21,35.5,23.1,10.0,17.8,12.2,6.5,88,65,41,30.13,30.02,13,4,20,0.00
2013-3-22,43.5,31.6,19.0,25.9,19.4,15.6,88,63,38,30.09,30.00,5,2,13,0.00
2013-3-23,45.6,36.2,27.4,28.0,25.7,23.0,87,67,46,30.10,29.96,10,4,19,0.00
2013-3-24,32.3,30.3,28.7,31.3,29.2,27.3,97,96,87,29.99,29.65,12,4,20,0.17
2013-3-25,35.1,30.9,27.6,29.0,27.0,23.7,97,85,77,30.14,29.78,21,9,29,0.14
2013-3-26,37.9,33.4,28.3,29.7,27.5,25.2,88,79,65,30.30,30.14,16,10,24,0.00
2013-3-27,44.1,35.2,26.0,29.1,26.4,22.2,92,72,48,30.36,30.29,9,4,16,0.00
2013-3-28,50.9,38.9,25.6,32.9,29.0,22.0,88,69,46,30.37,30.26,5,2,12,0.00
2013-3-29,56.4,45.9,34.7,35.7,32.5,29.8,86,61,41,30.30,30.19,5,2,11,0.00
2013-3-30,57.3,47.1,35.3,44.0,38.4,31.2,90,72,55,30.20,29.86,19,7,28,0.00
2013-3-31,59.6,49.2,36.7,46.0,39.0,27.6,94,71,38,29.94,29.77,25,14,36,0.00
2013-4-1,41.3,33.7,24.9,28.3,21.1,16.7,86,62,39,30.23,29.94,21,13,30,0.00
2013-4-2,45.5,32.0,18.2,23.6,17.7,12.6,96,60,27,30.34,30.23,19,8,29,0.00
2013-4-3,50.1,36.4,22.1,22.3,18.0,15.0,84,52,25,30.45,30.29,8,3,15,0.00
2013-4-4,60.2,45.3,29.9,30.4,23.6,18.1,73,46,20,30.28,29.99,9,4,20,0.00
2013-4-5,58.1,45.9,31.5,33.6,28.3,22.9,88,55,28,30.19,30.02,10,4,20,0.00
2013-4-6,71.0,56.3,42.0,51.0,36.8,24.4,84,50,29,30.05,29.60,21,10,38,0.01
2013-4-7,68.3,53.1,36.0,47.3,42.5,35.0,98,71,42,29.93,29.69,12,4,19,0.00
2013-4-8,72.4,62.6,53.2,58.9,54.9,41.9,98,77,56,29.83,29.54,22,8,37,0.91
2013-4-9,77.7,65.2,51.1,62.6,57.9,48.0,93,79,56,29.83,29.73,14,7,28,0.00
2013-4-10,50.8,44.2,40.1,47.7,42.8,38.5,97,95,89,29.94,29.66,16,9,28,1.18
2013-4-11,48.9,43.6,36.8,47.3,41.5,33.0,98,92,84,29.66,29.58,17,9,28,0.08
2013-4-12,42.7,38.9,36.3,38.2,35.0,32.5,94,86,75,29.91,29.60,22,12,33,0.00
2013-4-13,51.2,42.7,34.6,37.8,32.9,27.1,91,69,51,29.99,29.90,22,10,31,0.00
2013-4-14,75.2,59.7,45.0,54.2,45.5,36.2,82,61,40,29.94,29.55,22,12,42,0.00
2013-4-15,64.6,53.9,42.8,56.0,50.5,39.5,100,89,65,29.97,29.60,18,6,35,0.49
2013-4-16,51.7,45.9,37.9,44.4,39.7,34.7,92,79,62,30.18,29.94,8,4,14,0.00
2013-4-17,58.2,47.5,43.5,57.4,44.1,37.0,99,88,76,30.21,29.67,19,8,37,2.15
2013-4-18,62.2,52.4,38.0,60.6,50.9,33.3,99,95,83,29.69,29.40,28,13,41,2.29
2013-4-19,39.5,37.0,34.8,33.5,31.6,28.5,90,81,75,30.01,29.57,29,20,42,0.01
2013-4-20,48.3,39.0,30.1,32.9,29.1,27.0,89,69,44,30.37,30.01,14,6,23,0.00
2013-4-21,57.7,47.1,36.3,43.5,35.8,29.8,78,65,54,30.44,30.25,17,8,26,0.00
2013-4-22,67.7,55.8,42.2,49.3,40.3,35.5,81,58,35,30.27,29.97,13,8,23,0.00
2013-4-23,54.4,44.4,37.8,50.5,42.7,36.4,96,94,83,30.01,29.89,17,7,23,0.56
2013-4-24,50.8,41.9,35.7,36.6,34.0,31.2,96,75,48,30.15,29.97,17,9,25,0.04
2013-4-25,55.2,46.2,38.1,35.8,31.7,25.7,89,59,35,30.29,30.11,23,11,35,0.00
2013-4-26,64.4,53.1,41.7,48.0,41.8,33.3,86,66,53,30.29,30.21,16,9,29,0.00
2013-4-27,63.3,54.1,44.2,51.0,47.1,43.0,97,79,51,30.26,29.96,10,3,21,0.00
2013-4-28,69.4,58.0,51.6,53.8,51.9,50.4,97,82,55,29.95,29.79,9,4,16,0.00
2013-4-29,76.4,62.7,47.3,61.4,54.8,46.2,97,77,56,29.88,29.67,20,11,31,0.00
2013-4-30,86.4,73.3,61.6,63.1,58.2,51.4,92,63,31,29.88,29.68,17,11,29,0.00
2013-5-1,83.8,73.4,61.4,58.5,54.8,49.8,83,55,32,30.05,29.88,13,6,23,0.00
2013-5-2,68.7,58.0,44.1,57.3,50.1,42.2,94,76,61,30.13,30.03,21,6,31,0.08
2013-5-3,58.1,48.5,42.7,57.8,47.6,41.6,99,97,94,30.08,29.81,10,6,22,1.19
2013-5-4,65.0,59.3,53.7,60.6,56.6,52.5,97,91,75,30.00,29.82,9,4,18,0.16
2013-5-5,72.5,60.9,51.0,59.8,52.7,45.9,99,78,39,29.99,29.88,10,4,21,0.01
2013-5-6,74.3,64.3,53.9,54.7,48.9,39.7,91,62,31,30.00,29.91,9,3,18,0.00
2013-5-7,79.5,66.6,50.6,47.4,40.5,34.4,75,42,20,30.01,29.92,5,2,13,0.00
2013-5-8,80.1,69.0,54.4,56.2,48.9,41.3,83,52,29,29.99,29.91,5,1,13,0.00
2013-5-9,70.5,62.9,59.5,62.5,59.7,56.1,98,90,68,29.92,29.76,18,4,30,0.22
2013-5-10,61.3,53.1,48.6,60.4,51.4,47.3,98,94,89,29.96,29.76,13,4,20,0.00
2013-5-11,59.9,51.1,40.0,52.3,38.4,28.2,98,67,33,30.09,29.90,31,13,46,0.02
2013-5-12,57.4,46.5,34.2,34.7,28.9,23.0,84,54,31,30.17,30.09,22,11,37,0.00
2013-5-13,69.9,55.3,37.7,42.9,34.7,28.8,78,50,26,30.18,29.96,11,4,21,0.00
2013-5-14,91.4,73.3,54.6,63.7,54.8,42.0,76,54,36,29.96,29.63,14,8,24,0.00
2013-5-15,82.6,74.5,64.5,61.4,56.3,49.2,75,54,33,29.81,29.67,14,6,26,0.02
2013-5-16,83.5,71.5,57.8,62.3,55.3,48.7,90,59,33,29.90,29.78,8,2,16,0.01
2013-5-17,79.9,70.0,59.4,68.0,61.5,56.8,94,76,48,29.94,29.86,9,3,18,0.25
2013-5-18,81.8,71.4,63.5,68.1,64.5,62.6,98,81,56,29.97,29.84,9,3,16,0.00
2013-5-19,88.5,74.9,63.7,71.8,66.1,57.6,95,76,50,29.87,29.64,16,7,31,0.00
2013-5-20,82.0,72.3,61.5,68.0,62.9,59.8,98,74,48,29.78,29.61,24,7,42,0.73
2013-5-21,80.7,70.6,61.6,66.0,62.3,60.3,97,77,52,29.66,29.61,17,6,26,0.01
2013-5-22,71.7,64.4,58.5,61.6,58.2,55.7,96,81,59,29.76,29.58,11,4,22,0.04
2013-5-23,62.9,57.6,51.3,56.6,53.3,47.6,98,86,66,30.23,29.76,13,4,19,0.04
2013-5-24,66.8,54.2,40.1,47.6,41.7,37.4,94,65,35,30.43,30.23,6,3,13,0.00
2013-5-25,54.6,50.2,46.4,49.9,44.7,38.2,95,82,63,30.37,30.21,10,3,18,0.46
2013-5-26,64.2,55.6,49.8,59.3,53.2,47.6,97,92,84,30.24,30.01,18,4,32,1.33
2013-5-27,70.8,63.5,58.0,66.7,61.7,56.9,98,94,85,30.00,29.75,9,4,17,0.06
2013-5-28,76.8,68.9,64.1,71.5,66.2,61.7,97,91,82,29.84,29.63,24,7,39,0.60
2013-5-29,84.7,73.3,61.0,72.4,66.5,60.1,98,80,59,29.92,29.75,15,7,28,0.64
2013-5-30,83.6,72.6,62.1,71.8,66.8,60.9,98,83,65,29.83,29.67,18,11,33,0.87
2013-5-31,73.4,67.4,62.5,70.8,65.5,61.6,98,94,83,29.81,29.64,14,7,24,0.20
2013-6-1,75.5,67.5,61.1,69.0,63.6,58.7,97,88,63,29.76,29.63,14,6,26,0.00
2013-6-2,62.2,59.2,54.1,60.0,54.5,49.9,95,85,70,30.01,29.75,19,8,26,0.00
2013-6-3,67.5,58.6,47.6,51.4,48.8,43.9,98,72,49,30.10,29.99,6,2,18,0.00
2013-6-4,73.4,63.9,52.8,56.9,52.4,47.1,85,68,50,30.10,29.99,10,3,18,0.00
2013-6-5,76.3,66.8,56.9,62.3,57.7,52.9,89,73,54,30.02,29.84,6,2,12,0.01
2013-6-6,70.0,62.0,56.5,61.9,57.8,54.1,95,86,72,29.87,29.81,11,4,16,0.17
2013-6-7,72.7,63.3,53.9,57.1,53.9,51.2,92,73,53,29.91,29.85,8,3,19,0.00
2013-6-8,77.6,66.2,52.5,59.9,53.1,46.3,90,64,44,29.93,29.88,7,2,13,0.00
2013-6-9,80.7,67.7,60.2,66.7,60.7,55.4,96,80,53,29.91,29.73,11,5,23,0.46
2013-6-10,78.7,67.7,59.1,65.1,62.1,58.2,98,83,60,29.85,29.70,12,4,22,0.00
2013-6-11,85.9,73.0,60.0,74.4,66.3,58.6,96,80,63,29.89,29.75,11,2,17,0.00
2013-6-12,91.9,77.2,69.0,74.9,70.7,67.5,96,82,56,29.82,29.54,21,5,33,0.00
2013-6-13,81.6,73.6,64.9,70.2,60.0,54.7,95,65,40,29.95,29.62,19,5,30,0.02
2013-6-14,79.1,69.2,57.1,62.6,57.3,53.9,90,67,48,30.09,29.92,7,2,18,0.00
2013-6-15,76.2,70.6,66.3,70.1,65.2,57.5,96,83,69,30.00,29.83,21,4,48,0.50
2013-6-16,82.1,71.9,63.6,71.5,67.2,62.1,97,86,64,29.92,29.85,0,0,0,0.00
2013-6-17,86.4,76.1,65.1,69.5,65.0,59.8,97,72,42,29.91,29.83,0,0,0,0.01
2013-6-18,79.3,71.2,63.8,64.9,61.3,55.8,93,72,54,29.99,29.82,0,0,0,0.00
2013-6-19,84.7,70.9,55.5,62.9,55.8,50.5,85,62,35,30.07,29.98,0,0,0,0.00
2013-6-20,89.5,77.7,64.1,68.6,63.3,57.7,87,63,41,30.07,29.98,0,0,0,0.00
2013-6-21,87.5,75.3,67.4,74.5,68.1,63.8,94,79,59,30.06,29.88,0,0,2,0.67
2013-6-22,87.3,78.0,69.3,77.2,71.9,65.6,92,82,71,30.01,29.89,0,0,0,0.00
2013-6-23,88.6,73.4,67.0,74.4,68.6,64.9,94,86,61,29.99,29.84,0,0,5,0.15
2013-6-24,86.3,71.0,64.9,77.0,68.1,64.0,98,91,66,30.06,29.82,0,0,2,1.99
2013-6-25,85.7,76.6,67.9,77.3,72.2,66.1,98,87,69,29.88,29.74,0,0,0,0.38
2013-6-26,84.7,75.5,66.1,77.4,71.9,65.2,98,89,69,29.76,29.66,6,0,11,0.65
2013-6-27,86.8,77.8,68.2,74.3,71.5,66.3,98,82,56,29.80,29.70,15,6,22,0.00
2013-6-28,83.2,73.5,64.0,66.8,63.6,60.8,96,74,48,29.75,29.61,20,9,31,0.00
2013-6-29,72.2,67.1,62.6,66.4,63.2,60.0,95,88,78,29.74,29.58,14,6,20,0.11
2013-6-30,77.1,67.5,60.1,65.7,60.5,54.5,95,79,58,29.95,29.74,9,3,21,0.08
2013-7-1,77.2,67.0,56.4,57.4,53.7,50.7,87,65,43,30.01,29.94,8,4,19,0.00
2013-7-2,75.3,66.2,55.5,58.7,54.4,48.1,89,68,40,30.04,29.98,9,3,19,0.00
2013-7-3,78.3,66.9,55.1,59.1,55.0,51.6,96,69,40,30.04,29.98,7,2,15,0.00
2013-7-4,85.2,73.4,61.7,66.7,62.0,56.6,92,70,42,30.04,29.96,7,3,13,0.00
2013-7-5,85.3,75.1,63.4,69.1,63.6,60.6,95,70,45,30.03,29.95,7,3,14,0.00
2013-7-6,86.2,73.9,64.0,70.5,66.3,62.2,96,79,49,30.00,29.91,7,4,15,0.00
2013-7-7,90.1,79.0,68.5,73.6,70.1,65.3,91,76,50,29.96,29.89,7,4,14,0.00
2013-7-8,85.8,78.0,71.1,76.0,72.6,69.4,95,84,70,29.98,29.91,9,4,17,0.26
2013-7-9,87.3,80.9,75.4,79.0,75.9,73.6,96,85,71,29.95,29.81,6,2,11,0.00
2013-7-10,85.0,78.6,65.0,75.9,69.9,62.0,95,76,56,29.97,29.78,14,4,21,0.00
2013-7-11,79.4,70.8,61.1,65.0,60.4,57.3,95,72,48,30.06,29.97,5,1,13,0.00
2013-7-12,83.6,71.7,58.1,61.6,57.2,53.1,89,62,37,30.10,30.02,4,1,10,0.00
2013-7-13,83.3,73.6,62.8,64.5,61.5,55.8,86,67,49,30.09,30.02,5,2,14,0.00
2013-7-14,88.6,78.1,66.7,72.1,68.1,64.1,92,73,53,30.12,30.05,8,2,15,0.00
2013-7-15,88.1,79.3,70.6,77.0,72.9,68.9,95,82,63,30.20,30.12,5,2,11,0.00
2013-7-16,91.1,82.0,73.5,77.0,74.5,72.3,97,80,57,30.24,30.17,7,2,13,0.00
2013-7-17,93.6,83.0,72.2,77.8,74.1,70.6,96,76,52,30.26,30.12,4,1,8,0.00
2013-7-18,92.9,84.1,73.8,78.3,75.3,72.1,95,76,57,30.14,29.92,4,2,11,0.00
2013-7-19,93.5,84.4,74.2,76.8,73.5,71.1,91,71,51,29.92,29.74,10,4,19,0.00
2013-7-20,86.4,78.7,69.2,73.9,67.9,62.2,93,71,47,29.87,29.77,5,2,15,0.00
2013-7-21,80.6,73.9,66.8,73.9,69.5,63.7,95,86,70,29.89,29.79,5,1,9,0.03
2013-7-22,87.0,74.9,64.9,74.5,69.7,64.0,98,85,63,29.83,29.70,18,2,39,0.18
2013-7-23,77.5,69.9,63.9,70.5,65.1,60.1,98,86,65,29.91,29.71,12,4,19,0.00
2013-7-24,75.0,65.9,55.5,60.4,57.0,54.1,97,75,53,30.02,29.90,6,2,14,0.00
2013-7-25,81.1,69.0,53.5,62.5,58.3,51.2,94,71,48,30.08,30.00,5,2,10,0.00
2013-7-26,72.9,65.7,57.6,69.7,63.2,55.9,98,92,83,30.00,29.87,8,3,31,0.87
2013-7-27,64.8,59.1,52.9,57.5,53.5,49.5,100,83,60,29.95,29.89,16,7,25,0.01
2013-7-28,71.0,60.3,50.1,57.3,53.1,48.4,95,79,55,30.03,29.91,14,5,23,0.00
2013-7-29,76.2,64.3,51.6,61.7,55.7,50.3,97,76,52,30.13,30.02,3,1,8,0.00
2013-7-30,67.7,65.6,62.4,67.1,63.2,57.7,99,92,75,30.11,29.99,5,2,11,0.82
2013-7-31,74.9,69.3,64.7,69.6,67.3,63.5,99,94,80,30.00,29.93,8,3,14,0.02
2013-8-1,79.3,70.4,60.4,67.8,63.6,59.8,99,81,56,30.01,29.91,11,3,18,0.01
2013-8-2,83.0,73.9,66.7,73.1,68.2,63.0,97,83,66,29.92,29.82,7,3,18,0.97
2013-8-3,79.1,70.7,62.4,65.9,62.6,59.3,96,77,52,30.08,29.92,7,2,16,0.00
2013-8-4,79.0,68.8,56.9,65.3,58.2,53.3,95,71,43,30.15,30.05,4,1,8,0.00
2013-8-5,74.9,67.5,60.3,68.5,63.4,57.7,96,87,78,30.06,29.82,8,3,14,0.09
2013-8-6,85.5,74.4,65.8,77.4,71.0,64.9,99,90,72,29.86,29.76,7,3,10,0.00
2013-8-7,84.4,76.4,68.0,77.8,72.3,65.6,97,88,66,29.89,29.75,10,3,18,0.00
2013-8-8,79.3,70.9,63.7,68.9,65.8,62.8,97,85,69,29.96,29.89,5,2,12,0.00
2013-8-9,80.2,70.8,58.9,70.4,64.9,57.4,96,82,65,30.02,29.94,4,1,9,0.00
2013-8-10,77.8,69.0,59.0,67.3,61.4,57.6,96,78,54,30.11,30.02,9,3,18,0.00
2013-8-11,81.1,70.3,56.0,69.3,63.0,54.5,97,79,57,30.10,30.00,4,1,8,0.00
2013-8-12,79.2,71.3,64.0,74.1,67.2,61.9,95,87,74,30.01,29.85,7,3,12,0.11
2013-8-13,72.5,64.4,56.2,62.3,56.3,51.1,96,77,48,30.12,29.91,6,2,14,0.00
2013-8-14,72.6,61.2,47.8,57.6,52.8,46.4,97,76,49,30.19,30.11,5,1,11,0.00
2013-8-15,73.9,63.8,55.6,61.1,56.4,53.1,94,78,49,30.15,30.07,4,1,8,0.00
2013-8-16,78.8,67.0,54.1,65.0,57.5,52.8,97,74,47,30.15,30.09,4,1,10,0.00
2013-8-17,78.5,68.1,56.6,62.0,58.5,54.7,95,73,49,30.18,30.10,5,2,13,0.00
2013-8-18,82.1,68.9,55.1,66.3,59.4,53.3,95,74,45,30.16,30.06,4,1,10,0.00
2013-8-19,83.5,72.1,61.6,69.3,64.5,57.8,94,78,59,30.09,29.99,5,1,12,0.00
2013-8-20,85.1,74.4,64.7,71.6,67.2,62.9,96,80,56,30.07,29.98,6,3,13,0.00
2013-8-21,86.8,75.9,65.6,72.9,68.7,64.1,96,80,60,30.05,29.95,5,3,11,0.00
2013-8-22,79.0,73.4,69.4,72.5,69.2,66.9,94,87,78,30.06,29.97,7,2,19,0.00
2013-8-23,82.0,72.1,61.7,70.1,65.7,60.8,99,82,58,30.11,30.04,5,2,13,0.00
2013-8-24,86.0,74.0,60.4,72.3,65.9,57.9,93,77,59,30.18,30.09,7,3,12,0.00
2013-8-25,88.3,76.2,65.0,73.3,68.2,62.9,93,78,53,30.21,30.10,6,4,12,0.00
2013-8-26,88.6,77.4,65.9,77.2,71.0,63.4,93,82,64,30.12,29.95,6,3,8,0.00
2013-8-27,90.8,80.2,71.7,77.5,72.4,65.6,95,78,58,29.97,29.84,7,3,13,0.00
2013-8-28,91.9,80.0,69.1,81.0,73.0,65.1,93,80,66,29.95,29.85,7,3,14,0.00
2013-8-29,84.9,75.9,69.3,75.3,71.8,68.4,98,88,71,30.02,29.91,4,2,10,0.00
2013-8-30,94.0,81.0,69.8,81.1,74.0,66.1,97,81,57,29.92,29.73,9,3,23,0.00
2013-8-31,86.8,77.1,69.7,77.4,70.5,64.2,96,80,71,29.76,29.69,7,2,12,0.00
2013-9-1,87.3,73.5,61.7,76.2,68.1,61.1,99,85,61,29.80,29.69,11,3,16,0.01
2013-9-2,77.6,67.7,58.3,67.7,60.7,55.2,96,80,56,29.96,29.80,10,4,16,0.00
2013-9-3,76.3,63.8,50.7,63.3,57.4,49.9,98,81,57,30.07,29.96,5,1,8,0.01
2013-9-4,84.5,68.9,53.0,64.9,59.0,52.2,98,74,40,30.12,30.02,5,1,13,0.00
2013-9-5,87.1,73.8,62.0,70.8,63.2,57.5,90,71,48,30.16,30.08,5,2,10,0.00
2013-9-6,86.7,72.4,58.8,69.1,61.9,53.2,85,71,52,30.14,29.97,6,3,13,0.00
2013-9-7,87.3,74.6,62.9,72.1,66.9,61.1,95,78,56,29.98,29.84,7,4,13,0.01
2013-9-8,85.4,76.9,70.0,73.4,70.4,68.2,94,81,65,29.93,29.82,7,3,13,0.00
2013-9-9,94.4,80.8,70.6,77.0,72.7,68.4,97,78,52,29.86,29.78,7,4,12,0.00
2013-9-10,92.9,81.3,70.6,73.4,68.6,64.4,82,67,46,29.98,29.86,7,4,16,0.00
2013-9-11,89.9,77.6,70.4,73.3,68.9,65.1,95,76,55,30.02,29.95,13,4,20,0.01
2013-9-12,79.7,71.1,55.8,70.1,59.9,48.1,97,72,35,30.05,29.96,17,6,25,0.01
2013-9-13,70.0,58.4,47.2,50.8,44.9,37.3,96,65,31,30.16,30.04,6,2,14,0.00
2013-9-14,72.5,58.4,43.8,50.0,46.2,41.9,95,67,34,30.16,29.99,6,2,14,0.00
2013-9-15,65.2,58.8,52.9,60.7,54.2,46.7,96,85,72,30.13,29.93,8,4,15,0.25
2013-9-16,69.1,59.4,52.4,55.7,52.5,48.0,97,79,54,30.31,30.13,7,4,15,0.00
2013-9-17,72.5,60.9,48.9,59.9,54.2,47.1,96,80,59,30.28,30.05,7,3,14,0.00
2013-9-18,85.9,73.0,62.0,71.4,65.2,56.4,88,77,61,30.05,29.85,9,6,21,0.00
2013-9-19,90.2,78.3,67.1,73.5,69.9,64.9,96,77,55,29.88,29.72,14,5,20,0.42
2013-9-20,70.3,64.8,52.6,67.1,60.3,50.6,98,86,56,29.86,29.73,15,6,24,0.13
2013-9-21,68.8,57.6,48.1,54.3,50.0,46.7,96,78,49,29.92,29.84,12,6,23,0.01
2013-9-22,71.4,58.4,45.4,51.4,48.2,43.8,96,71,43,30.03,29.92,4,2,11,0.00
2013-9-23,74.9,60.2,46.8,52.5,48.8,44.7,93,69,41,30.05,29.93,7,3,14,0.00
2013-9-24,74.9,62.5,49.7,57.6,52.4,47.0,92,71,50,29.95,29.83,6,3,13,0.00
2013-9-25,78.6,64.9,53.2,60.1,54.6,50.3,90,71,48,29.90,29.83,5,3,13,0.00
2013-9-26,82.2,66.8,53.6,63.7,56.1,51.0,94,71,45,30.00,29.89,6,3,13,0.00
2013-9-27,82.8,68.2,55.6,60.3,53.1,50.0,83,61,35,30.08,29.97,8,3,18,0.00
2013-9-28,82.1,67.3,57.6,67.4,60.0,53.5,95,79,54,29.99,29.85,14,5,23,0.07
2013-9-29,71.0,58.8,45.8,55.8,47.6,41.6,99,71,35,30.05,29.96,8,2,13,0.01
2013-9-30,77.5,62.1,47.8,59.1,51.6,45.3,94,72,41,29.97,29.83,9,4,18,0.00
2013-10-1,80.8,68.5,59.8,66.9,63.8,58.6,98,86,60,29.94,29.85,7,5,14,0.00
2013-10-2,80.8,69.4,62.3,69.0,65.4,61.7,99,88,64,30.02,29.91,8,2,13,0.01
2013-10-3,82.4,70.2,63.8,72.6,67.1,62.6,98,91,66,29.91,29.77,8,5,16,1.14
2013-10-4,83.6,73.6,64.7,73.0,68.8,62.9,98,86,64,29.91,29.83,8,5,19,0.00
2013-10-5,75.4,69.0,56.1,71.6,66.3,52.3,97,91,80,29.86,29.75,9,4,20,0.06
2013-10-6,55.4,49.1,44.7,51.7,44.1,40.1,96,84,62,29.80,29.73,8,4,17,0.01
2013-10-7,70.7,55.9,42.5,50.8,46.9,41.6,98,75,41,30.07,29.79,12,4,21,0.01
2013-10-8,76.7,60.9,46.1,54.3,48.8,44.5,96,68,39,30.16,30.06,8,3,19,0.00
2013-10-9,73.3,60.5,48.0,51.0,48.2,45.6,92,66,39,30.18,30.07,7,2,14,0.00
2013-10-10,76.8,62.8,51.3,59.8,53.8,47.0,89,74,52,30.12,29.97,7,2,16,0.00
2013-10-11,78.0,66.1,55.7,61.4,56.7,53.8,95,74,48,30.00,29.84,12,6,25,0.00
2013-10-12,73.5,62.9,47.8,61.7,52.3,40.2,92,70,35,30.18,29.88,11,6,19,0.00
2013-10-13,66.5,52.9,40.5,42.9,36.7,31.0,87,58,28,30.38,30.17,8,2,17,0.00
2013-10-14,65.2,53.1,40.4,46.3,40.6,35.5,90,65,40,30.37,30.03,7,3,15,0.00
2013-10-15,70.0,58.4,44.7,63.3,51.7,40.5,97,79,61,30.03,29.76,12,6,20,0.05
2013-10-16,52.5,49.6,43.5,45.6,44.2,40.4,92,82,75,29.96,29.87,12,4,22,0.00
2013-10-17,61.1,50.8,46.1,48.8,43.1,37.8,97,77,44,29.95,29.82,9,3,21,0.14
2013-10-18,54.5,45.5,36.9,42.4,39.3,35.6,97,80,56,29.99,29.84,14,6,24,0.00
2013-10-19,56.2,46.4,36.0,41.5,38.3,35.0,96,75,47,29.96,29.81,12,5,24,0.00
2013-10-20,68.7,53.1,39.6,47.9,42.5,37.3,94,70,41,29.85,29.69,10,4,22,0.00
2013-10-21,55.1,43.8,33.3,48.7,33.1,23.8,88,68,42,30.00,29.81,20,9,30,0.00
2013-10-22,40.2,35.2,30.8,38.9,32.9,25.2,97,91,75,30.00,29.84,7,3,17,0.46
2013-10-23,45.1,38.0,31.3,36.2,32.3,29.3,97,81,60,30.07,29.97,14,8,21,0.01
2013-10-24,42.9,35.2,26.5,35.5,27.2,23.2,95,74,50,30.36,30.06,17,9,26,0.00
2013-10-25,53.5,38.7,24.6,35.7,27.9,21.8,92,69,37,30.44,30.10,9,4,19,0.00
2013-10-26,54.3,44.8,33.0,37.8,31.7,27.2,79,61,38,30.11,29.93,24,9,32,0.01
2013-10-27,56.5,42.1,28.4,35.7,30.8,25.5,90,67,40,30.10,29.97,6,3,15,0.00
2013-10-28,59.3,43.6,36.7,41.4,34.7,30.5,85,72,39,30.30,30.05,7,4,15,0.00
2013-10-29,54.0,46.7,37.6,50.6,41.9,35.8,96,84,63,30.29,30.08,6,3,15,0.00
2013-10-30,63.6,56.8,51.7,63.3,56.3,50.6,99,98,96,30.08,29.74,12,5,22,1.40
2013-10-31,63.6,56.6,44.3,63.3,55.6,43.0,99,97,92,29.73,29.27,17,8,28,0.71
2013-11-1,50.7,45.8,41.3,47.4,43.9,40.0,98,93,81,29.77,29.47,14,5,24,0.02
2013-11-2,50.3,41.7,34.2,40.5,36.8,31.0,98,84,60,30.15,29.76,18,8,25,0.00
2013-11-3,53.0,42.0,28.8,39.7,34.6,27.5,97,77,50,30.28,30.15,11,4,20,0.01
2013-11-4,57.6,50.9,44.6,46.4,42.0,37.2,79,72,60,30.18,30.05,17,8,28,0.00
2013-11-5,54.9,52.6,51.2,52.9,50.1,46.1,97,91,79,30.21,29.90,19,9,28,0.21
2013-11-6,56.6,45.1,31.8,56.0,42.8,28.9,98,91,81,30.21,29.80,19,10,30,0.57
2013-11-7,46.0,34.5,27.9,40.3,31.2,26.1,94,88,76,30.30,30.21,19,6,28,0.00
2013-11-8,48.4,40.2,27.9,37.5,32.2,26.1,95,75,56,30.33,29.94,20,8,32,0.01
2013-11-9,60.2,50.3,42.0,43.3,39.6,36.0,83,68,48,30.18,29.90,22,12,33,0.00
2013-11-10,49.2,40.3,29.5,36.1,32.0,26.6,91,73,53,30.40,30.18,15,6,21,0.00
2013-11-11,49.4,39.1,22.9,39.6,32.9,18.8,96,79,66,30.55,30.09,13,3,22,0.03
2013-11-12,30.6,22.1,16.6,22.6,17.4,13.4,90,82,69,30.77,30.55,13,5,19,0.01
2013-11-13,41.0,31.1,16.7,25.1,20.5,14.2,91,66,45,30.66,30.20,11,6,22,0.01
2013-11-14,51.9,40.9,30.9,30.1,25.7,21.4,70,56,42,30.19,29.95,11,6,21,0.00
2013-11-15,47.7,42.0,36.4,39.6,33.8,27.5,85,73,60,29.98,29.87,13,6,19,0.00
2013-11-16,59.8,53.2,41.9,56.6,50.6,38.0,93,91,86,29.88,29.52,23,13,36,0.07
2013-11-17,67.7,55.2,42.6,64.2,51.7,39.8,97,88,80,29.84,29.16,36,14,51,0.82
2013-11-18,45.5,39.2,29.2,39.6,33.4,26.4,92,80,62,30.28,29.84,22,12,33,0.00
2013-11-19,45.7,35.1,26.1,32.0,27.9,23.8,92,76,52,30.35,30.22,8,4,15,0.00
2013-11-20,41.6,37.5,33.5,38.9,33.4,29.0,95,85,74,30.23,30.02,13,8,26,0.27
2013-11-21,48.5,44.7,40.9,46.1,42.5,38.8,100,92,87,30.22,30.06,9,3,15,0.06
2013-11-22,40.9,34.3,22.8,39.7,32.0,21.1,96,91,82,30.52,30.22,17,7,24,0.02
2013-11-23,23.6,20.4,10.0,21.5,14.6,6.1,94,78,61,30.76,30.51,21,11,29,0.00
2013-11-24,29.0,18.1,8.3,14.7,9.2,3.9,90,70,36,30.79,30.40,7,3,14,0.00
2013-11-25,33.5,28.8,21.3,26.8,21.3,14.6,85,74,62,30.40,30.11,16,8,25,0.00
2013-11-26,34.2,26.7,15.1,28.8,20.1,9.5,90,76,59,30.25,30.07,23,12,32,0.00
2013-11-27,27.6,19.2,10.9,14.4,10.7,6.3,82,70,51,30.33,30.24,14,8,21,0.00
2013-11-28,37.3,26.0,18.4,22.1,17.2,12.9,85,70,53,30.52,30.18,13,7,19,0.00
2013-11-29,37.0,27.3,15.1,25.7,20.0,12.9,92,75,54,30.63,30.36,12,4,18,0.00
2013-11-30,51.5,39.2,30.1,36.3,31.4,25.7,89,75,55,30.36,30.05,13,6,20,0.00
2013-12-1,47.0,36.8,28.3,34.2,31.0,26.5,94,80,58,30.11,29.95,6,2,9,0.00
2013-12-2,44.0,38.3,32.2,38.7,35.0,30.4,95,88,74,29.95,29.65,7,4,15,0.00
2013-12-3,50.1,44.6,38.6,49.8,44.0,37.3,99,98,94,29.67,29.58,11,5,19,0.00
2013-12-4,53.3,46.9,31.5,53.0,46.2,29.4,99,97,90,29.79,29.46,25,7,35,0.02
2013-12-5,31.5,22.4,19.1,28.7,16.9,12.8,91,79,70,30.32,29.78,23,14,33,0.00
2013-12-6,18.9,14.6,8.5,13.1,8.7,4.7,84,77,64,30.62,30.30,16,11,23,0.00
2013-12-7,20.1,10.8,1.8,8.0,4.5,-1.2,89,76,53,30.77,30.57,10,4,16,0.00
2013-12-8,23.2,20.0,11.7,21.9,16.7,7.1,95,87,77,30.58,30.01,11,5,23,0.00
2013-12-9,23.1,14.0,0.5,21.6,9.4,-2.9,94,82,70,30.31,30.01,19,11,28,0.00
2013-12-10,23.9,14.6,1.3,15.8,7.9,-2.4,86,75,62,30.33,30.10,24,9,33,0.00
2013-12-11,20.6,13.0,-1.6,16.7,6.9,-6.7,91,76,61,30.65,30.26,19,8,25,0.00
2013-12-12,28.5,15.6,0.0,20.0,9.1,-3.9,84,75,68,30.62,30.24,15,5,23,0.00
2013-12-13,36.2,27.6,17.7,30.2,23.1,13.5,97,84,68,30.24,30.02,8,4,13,0.00
2013-12-14,31.5,25.9,13.7,30.7,24.6,11.8,97,95,89,30.08,29.93,15,6,21,0.07
2013-12-15,16.3,13.8,6.6,12.9,10.2,3.8,91,85,78,30.15,30.05,15,6,22,0.00
2013-12-16,21.2,17.5,13.6,19.5,15.2,11.0,95,90,84,30.15,30.03,15,4,21,0.00
2013-12-17,34.2,24.8,16.4,29.2,21.2,12.1,96,86,68,30.21,30.06,23,10,32,0.06
2013-12-18,36.7,26.6,9.9,31.3,20.1,6.6,90,77,54,30.21,29.85,19,8,29,0.00
2013-12-19,43.7,40.1,35.6,42.4,36.8,31.4,100,88,80,29.88,29.72,9,6,19,0.13
2013-12-20,44.4,34.5,29.3,43.9,34.0,28.8,100,98,97,29.84,29.69,13,6,18,0.14
2013-12-21,32.5,29.4,27.3,31.7,28.6,26.6,98,97,96,29.86,29.59,10,4,15,0.02
2013-12-22,32.6,27.7,17.7,32.0,26.4,15.3,98,95,90,30.22,29.61,14,6,19,0.00
2013-12-23,18.0,8.4,2.1,15.6,4.7,-2.9,91,84,78,30.57,30.23,14,10,20,0.00
2013-12-24,20.0,7.5,-3.7,15.0,3.3,-7.6,92,83,78,30.64,30.35,12,6,19,0.00
2013-12-25,28.2,24.9,20.1,26.4,22.4,14.9,96,90,80,30.35,30.17,16,8,25,0.00
2013-12-26,36.5,28.7,17.9,33.9,25.2,15.5,94,87,78,30.31,30.17,19,6,28,0.03
2013-12-27,43.3,34.4,26.6,36.5,31.0,25.6,96,87,76,30.30,30.13,10,4,14,0.06
2013-12-28,51.2,41.2,35.7,40.2,35.1,32.2,89,79,63,30.13,29.84,10,6,19,0.00
2013-12-29,38.5,23.4,3.7,32.5,20.1,-1.1,99,87,78,30.29,29.80,23,16,31,0.01
2013-12-30,13.1,6.4,-0.7,10.7,1.7,-5.7,92,81,70,30.38,30.24,14,4,18,0.00
2013-12-31,18.5,12.5,2.2,13.6,9.3,-0.8,92,87,80,30.41,30.24,9,4,17,0.00
2014-1-1,22.2,17.5,12.3,20.0,15.2,9.9,93,91,87,30.25,30.17,10,6,23,0.00
2014-1-2,13.9,9.9,-0.9,10.5,6.5,-3.8,90,86,81,30.49,30.18,18,8,26,0.00